sensor_id;sensor_type;location;lat;lon;timestamp;P1;durP1;ratioP1;P2;durP2;ratioP2
28958;SDS011;16066;0.000;0.000;2023-04-25T00:02:21;8.80;;;5.57;;
28958;SDS011;16066;0.000;0.000;2023-04-25T00:04:47;8.83;;;5.80;;
28958;SDS011;16066;0.000;0.000;2023-04-25T00:07:14;8.97;;;5.30;;
28958;SDS011;16066;0.000;0.000;2023-04-25T00:09:41;8.00;;;5.60;;
28958;SDS011;16066;0.000;0.000;2023-04-25T00:12:07;9.53;;;6.37;;
28958;SDS011;16066;0.000;0.000;2023-04-25T00:14:33;9.73;;;5.23;;
28958;SDS011;16066;0.000;0.000;2023-04-25T00:16:59;8.00;;;5.00;;
28958;SDS011;16066;0.000;0.000;2023-04-25T00:19:25;7.33;;;4.93;;
28958;SDS011;16066;0.000;0.000;2023-04-25T00:21:51;9.53;;;6.10;;
28958;SDS011;16066;0.000;0.000;2023-04-25T00:24:18;7.97;;;5.30;;
28958;SDS011;16066;0.000;0.000;2023-04-25T00:26:44;8.53;;;5.50;;
28958;SDS011;16066;0.000;0.000;2023-04-25T00:29:09;8.30;;;5.43;;
28958;SDS011;16066;0.000;0.000;2023-04-25T00:31:35;5.83;;;4.77;;
28958;SDS011;16066;0.000;0.000;2023-04-25T00:34:01;8.93;;;5.50;;
28958;SDS011;16066;0.000;0.000;2023-04-25T00:36:26;7.20;;;5.30;;
28958;SDS011;16066;0.000;0.000;2023-04-25T00:38:52;7.70;;;4.83;;
28958;SDS011;16066;0.000;0.000;2023-04-25T00:41:19;8.57;;;5.07;;
28958;SDS011;16066;0.000;0.000;2023-04-25T00:43:45;6.00;;;5.00;;
28958;SDS011;16066;0.000;0.000;2023-04-25T00:46:12;7.67;;;4.77;;
28958;SDS011;16066;0.000;0.000;2023-04-25T00:48:38;6.90;;;5.00;;
28958;SDS011;16066;0.000;0.000;2023-04-25T00:51:03;6.70;;;5.40;;
28958;SDS011;16066;0.000;0.000;2023-04-25T00:53:30;12.63;;;5.60;;
28958;SDS011;16066;0.000;0.000;2023-04-25T00:55:57;6.93;;;4.40;;
28958;SDS011;16066;0.000;0.000;2023-04-25T00:58:23;7.10;;;4.77;;
28958;SDS011;16066;0.000;0.000;2023-04-25T01:00:49;8.20;;;5.10;;
28958;SDS011;16066;0.000;0.000;2023-04-25T01:03:17;5.20;;;4.03;;
28958;SDS011;16066;0.000;0.000;2023-04-25T01:05:44;7.80;;;4.53;;
28958;SDS011;16066;0.000;0.000;2023-04-25T01:08:11;7.37;;;4.37;;
28958;SDS011;16066;0.000;0.000;2023-04-25T01:10:37;8.60;;;4.63;;
28958;SDS011;16066;0.000;0.000;2023-04-25T01:13:02;6.13;;;4.73;;
28958;SDS011;16066;0.000;0.000;2023-04-25T01:15:28;5.00;;;4.33;;
28958;SDS011;16066;0.000;0.000;2023-04-25T01:17:54;6.70;;;4.70;;
28958;SDS011;16066;0.000;0.000;2023-04-25T01:20:20;10.73;;;5.20;;
28958;SDS011;16066;0.000;0.000;2023-04-25T01:22:47;10.13;;;5.23;;
28958;SDS011;16066;0.000;0.000;2023-04-25T01:25:14;7.50;;;4.27;;
28958;SDS011;16066;0.000;0.000;2023-04-25T01:27:39;8.07;;;4.40;;
28958;SDS011;16066;0.000;0.000;2023-04-25T01:30:05;6.30;;;4.70;;
28958;SDS011;16066;0.000;0.000;2023-04-25T01:32:32;9.80;;;4.57;;
28958;SDS011;16066;0.000;0.000;2023-04-25T01:35:05;7.30;;;4.93;;
28958;SDS011;16066;0.000;0.000;2023-04-25T01:37:36;8.17;;;4.40;;
28958;SDS011;16066;0.000;0.000;2023-04-25T01:40:01;8.60;;;4.77;;
28958;SDS011;16066;0.000;0.000;2023-04-25T01:42:27;6.17;;;4.43;;
28958;SDS011;16066;0.000;0.000;2023-04-25T01:44:53;5.73;;;4.47;;
28958;SDS011;16066;0.000;0.000;2023-04-25T01:47:18;6.80;;;4.30;;
28958;SDS011;16066;0.000;0.000;2023-04-25T01:49:44;5.40;;;3.80;;
28958;SDS011;16066;0.000;0.000;2023-04-25T01:52:09;4.60;;;3.63;;
28958;SDS011;16066;0.000;0.000;2023-04-25T01:54:35;6.20;;;4.43;;
28958;SDS011;16066;0.000;0.000;2023-04-25T01:57:00;6.07;;;4.27;;
28958;SDS011;16066;0.000;0.000;2023-04-25T01:59:26;5.77;;;4.37;;
28958;SDS011;16066;0.000;0.000;2023-04-25T02:01:52;6.80;;;4.47;;
28958;SDS011;16066;0.000;0.000;2023-04-25T02:04:17;4.70;;;3.80;;
28958;SDS011;16066;0.000;0.000;2023-04-25T02:06:43;7.40;;;4.10;;
28958;SDS011;16066;0.000;0.000;2023-04-25T02:09:08;6.80;;;4.53;;
28958;SDS011;16066;0.000;0.000;2023-04-25T02:11:34;8.30;;;4.30;;
28958;SDS011;16066;0.000;0.000;2023-04-25T02:14:00;4.90;;;4.20;;
28958;SDS011;16066;0.000;0.000;2023-04-25T02:16:25;5.67;;;4.37;;
28958;SDS011;16066;0.000;0.000;2023-04-25T02:18:51;5.00;;;3.83;;
28958;SDS011;16066;0.000;0.000;2023-04-25T02:21:17;5.47;;;4.00;;
28958;SDS011;16066;0.000;0.000;2023-04-25T02:23:43;6.57;;;4.50;;
28958;SDS011;16066;0.000;0.000;2023-04-25T02:26:10;4.80;;;3.90;;
28958;SDS011;16066;0.000;0.000;2023-04-25T02:28:36;7.40;;;3.60;;
28958;SDS011;16066;0.000;0.000;2023-04-25T02:31:01;6.67;;;4.20;;
28958;SDS011;16066;0.000;0.000;2023-04-25T02:33:27;5.53;;;4.20;;
28958;SDS011;16066;0.000;0.000;2023-04-25T02:35:53;6.40;;;3.67;;
28958;SDS011;16066;0.000;0.000;2023-04-25T02:38:18;4.53;;;3.37;;
28958;SDS011;16066;0.000;0.000;2023-04-25T02:40:44;5.30;;;4.20;;
28958;SDS011;16066;0.000;0.000;2023-04-25T02:43:09;5.20;;;3.80;;
28958;SDS011;16066;0.000;0.000;2023-04-25T02:45:35;5.00;;;3.97;;
28958;SDS011;16066;0.000;0.000;2023-04-25T02:48:01;7.27;;;4.53;;
28958;SDS011;16066;0.000;0.000;2023-04-25T02:50:27;5.73;;;4.27;;
28958;SDS011;16066;0.000;0.000;2023-04-25T02:52:53;6.10;;;4.43;;
28958;SDS011;16066;0.000;0.000;2023-04-25T02:55:18;6.57;;;3.87;;
28958;SDS011;16066;0.000;0.000;2023-04-25T02:57:44;5.53;;;4.30;;
28958;SDS011;16066;0.000;0.000;2023-04-25T03:00:10;5.40;;;4.43;;
28958;SDS011;16066;0.000;0.000;2023-04-25T03:02:36;6.47;;;4.50;;
28958;SDS011;16066;0.000;0.000;2023-04-25T03:05:02;4.30;;;3.60;;
28958;SDS011;16066;0.000;0.000;2023-04-25T03:07:28;6.43;;;3.63;;
28958;SDS011;16066;0.000;0.000;2023-04-25T03:09:53;6.10;;;4.00;;
28958;SDS011;16066;0.000;0.000;2023-04-25T03:12:20;6.20;;;3.80;;
28958;SDS011;16066;0.000;0.000;2023-04-25T03:14:45;4.87;;;3.80;;
28958;SDS011;16066;0.000;0.000;2023-04-25T03:17:11;4.50;;;3.37;;
28958;SDS011;16066;0.000;0.000;2023-04-25T03:19:36;8.63;;;4.20;;
28958;SDS011;16066;0.000;0.000;2023-04-25T03:22:02;7.20;;;3.90;;
28958;SDS011;16066;0.000;0.000;2023-04-25T03:24:27;5.07;;;4.00;;
28958;SDS011;16066;0.000;0.000;2023-04-25T03:26:53;4.70;;;3.90;;
28958;SDS011;16066;0.000;0.000;2023-04-25T03:29:19;5.03;;;3.77;;
28958;SDS011;16066;0.000;0.000;2023-04-25T03:31:49;6.10;;;4.10;;
28958;SDS011;16066;0.000;0.000;2023-04-25T03:34:14;4.87;;;3.73;;
28958;SDS011;16066;0.000;0.000;2023-04-25T03:36:40;6.30;;;4.20;;
28958;SDS011;16066;0.000;0.000;2023-04-25T03:39:05;7.07;;;4.13;;
28958;SDS011;16066;0.000;0.000;2023-04-25T03:41:31;5.40;;;4.20;;
28958;SDS011;16066;0.000;0.000;2023-04-25T03:43:56;7.90;;;4.23;;
28958;SDS011;16066;0.000;0.000;2023-04-25T03:46:22;5.47;;;4.03;;
28958;SDS011;16066;0.000;0.000;2023-04-25T03:48:47;7.93;;;4.50;;
28958;SDS011;16066;0.000;0.000;2023-04-25T03:51:13;5.80;;;4.27;;
28958;SDS011;16066;0.000;0.000;2023-04-25T03:53:38;8.47;;;4.50;;
28958;SDS011;16066;0.000;0.000;2023-04-25T03:56:04;6.33;;;4.40;;
28958;SDS011;16066;0.000;0.000;2023-04-25T03:58:30;5.23;;;3.93;;
28958;SDS011;16066;0.000;0.000;2023-04-25T04:00:56;9.00;;;4.60;;
28958;SDS011;16066;0.000;0.000;2023-04-25T04:03:21;7.00;;;4.33;;
28958;SDS011;16066;0.000;0.000;2023-04-25T04:05:46;6.00;;;4.10;;
28958;SDS011;16066;0.000;0.000;2023-04-25T04:08:12;5.73;;;4.00;;
28958;SDS011;16066;0.000;0.000;2023-04-25T04:10:38;7.50;;;5.20;;
28958;SDS011;16066;0.000;0.000;2023-04-25T04:13:03;6.03;;;4.00;;
28958;SDS011;16066;0.000;0.000;2023-04-25T04:15:29;5.53;;;4.43;;
28958;SDS011;16066;0.000;0.000;2023-04-25T04:17:57;6.73;;;4.70;;
28958;SDS011;16066;0.000;0.000;2023-04-25T04:20:27;5.97;;;4.80;;
28958;SDS011;16066;0.000;0.000;2023-04-25T04:22:53;5.33;;;4.23;;
28958;SDS011;16066;0.000;0.000;2023-04-25T04:25:18;7.50;;;4.70;;
28958;SDS011;16066;0.000;0.000;2023-04-25T04:27:44;6.47;;;4.50;;
28958;SDS011;16066;0.000;0.000;2023-04-25T04:30:11;6.03;;;4.90;;
28958;SDS011;16066;0.000;0.000;2023-04-25T04:32:37;5.50;;;4.60;;
28958;SDS011;16066;0.000;0.000;2023-04-25T04:35:03;6.43;;;4.90;;
28958;SDS011;16066;0.000;0.000;2023-04-25T04:37:29;6.90;;;4.83;;
28958;SDS011;16066;0.000;0.000;2023-04-25T04:39:55;6.70;;;4.63;;
28958;SDS011;16066;0.000;0.000;2023-04-25T04:42:21;7.83;;;5.07;;
28958;SDS011;16066;0.000;0.000;2023-04-25T04:44:46;10.00;;;5.90;;
28958;SDS011;16066;0.000;0.000;2023-04-25T04:47:12;6.23;;;4.90;;
28958;SDS011;16066;0.000;0.000;2023-04-25T04:49:39;6.90;;;5.10;;
28958;SDS011;16066;0.000;0.000;2023-04-25T04:52:04;7.87;;;5.43;;
28958;SDS011;16066;0.000;0.000;2023-04-25T04:54:30;7.57;;;5.33;;
28958;SDS011;16066;0.000;0.000;2023-04-25T04:56:56;8.40;;;5.20;;
28958;SDS011;16066;0.000;0.000;2023-04-25T04:59:21;8.10;;;5.70;;
28958;SDS011;16066;0.000;0.000;2023-04-25T05:01:47;8.23;;;5.80;;
28958;SDS011;16066;0.000;0.000;2023-04-25T05:04:12;7.70;;;5.17;;
28958;SDS011;16066;0.000;0.000;2023-04-25T05:06:38;6.67;;;4.13;;
28958;SDS011;16066;0.000;0.000;2023-04-25T05:09:03;9.10;;;5.13;;
28958;SDS011;16066;0.000;0.000;2023-04-25T05:11:29;10.97;;;5.80;;
28958;SDS011;16066;0.000;0.000;2023-04-25T05:13:55;10.93;;;5.00;;
28958;SDS011;16066;0.000;0.000;2023-04-25T05:16:20;8.57;;;5.13;;
28958;SDS011;16066;0.000;0.000;2023-04-25T05:18:46;7.37;;;5.13;;
28958;SDS011;16066;0.000;0.000;2023-04-25T05:21:12;11.03;;;5.10;;
28958;SDS011;16066;0.000;0.000;2023-04-25T05:23:38;7.07;;;4.83;;
28958;SDS011;16066;0.000;0.000;2023-04-25T05:26:03;6.93;;;4.80;;
28958;SDS011;16066;0.000;0.000;2023-04-25T05:28:29;15.23;;;5.70;;
28958;SDS011;16066;0.000;0.000;2023-04-25T05:30:55;7.07;;;4.70;;
28958;SDS011;16066;0.000;0.000;2023-04-25T05:33:21;13.07;;;5.60;;
28958;SDS011;16066;0.000;0.000;2023-04-25T05:35:46;11.13;;;5.10;;
28958;SDS011;16066;0.000;0.000;2023-04-25T05:38:12;8.50;;;4.90;;
28958;SDS011;16066;0.000;0.000;2023-04-25T05:40:37;7.57;;;4.90;;
28958;SDS011;16066;0.000;0.000;2023-04-25T05:43:03;13.03;;;5.97;;
28958;SDS011;16066;0.000;0.000;2023-04-25T05:45:29;8.50;;;5.00;;
28958;SDS011;16066;0.000;0.000;2023-04-25T05:47:54;7.60;;;5.10;;
28958;SDS011;16066;0.000;0.000;2023-04-25T05:50:20;9.40;;;5.63;;
28958;SDS011;16066;0.000;0.000;2023-04-25T05:52:46;13.17;;;5.67;;
28958;SDS011;16066;0.000;0.000;2023-04-25T05:55:11;8.13;;;5.20;;
28958;SDS011;16066;0.000;0.000;2023-04-25T05:57:37;7.53;;;4.73;;
28958;SDS011;16066;0.000;0.000;2023-04-25T06:00:06;10.13;;;5.27;;
28958;SDS011;16066;0.000;0.000;2023-04-25T06:02:34;8.80;;;5.97;;
28958;SDS011;16066;0.000;0.000;2023-04-25T06:05:00;11.77;;;5.87;;
28958;SDS011;16066;0.000;0.000;2023-04-25T06:07:28;8.13;;;5.73;;
28958;SDS011;16066;0.000;0.000;2023-04-25T06:09:54;5.73;;;4.23;;
28958;SDS011;16066;0.000;0.000;2023-04-25T06:12:20;7.60;;;5.27;;
28958;SDS011;16066;0.000;0.000;2023-04-25T06:14:45;7.17;;;4.60;;
28958;SDS011;16066;0.000;0.000;2023-04-25T06:17:11;11.03;;;5.23;;
28958;SDS011;16066;0.000;0.000;2023-04-25T06:19:37;13.63;;;4.73;;
28958;SDS011;16066;0.000;0.000;2023-04-25T06:22:02;20.10;;;5.80;;
28958;SDS011;16066;0.000;0.000;2023-04-25T06:24:28;39.47;;;6.20;;
28958;SDS011;16066;0.000;0.000;2023-04-25T06:26:53;15.20;;;5.97;;
28958;SDS011;16066;0.000;0.000;2023-04-25T06:29:19;14.03;;;4.80;;
28958;SDS011;16066;0.000;0.000;2023-04-25T06:31:45;8.93;;;4.53;;
28958;SDS011;16066;0.000;0.000;2023-04-25T06:34:11;13.13;;;4.97;;
28958;SDS011;16066;0.000;0.000;2023-04-25T06:36:36;12.93;;;5.10;;
28958;SDS011;16066;0.000;0.000;2023-04-25T06:39:02;14.17;;;5.40;;
28958;SDS011;16066;0.000;0.000;2023-04-25T06:41:27;10.73;;;4.87;;
28958;SDS011;16066;0.000;0.000;2023-04-25T06:43:53;13.97;;;5.60;;
28958;SDS011;16066;0.000;0.000;2023-04-25T06:46:19;14.80;;;5.10;;
28958;SDS011;16066;0.000;0.000;2023-04-25T06:48:44;15.53;;;5.47;;
28958;SDS011;16066;0.000;0.000;2023-04-25T06:51:10;10.83;;;5.10;;
28958;SDS011;16066;0.000;0.000;2023-04-25T06:53:35;10.57;;;4.77;;
28958;SDS011;16066;0.000;0.000;2023-04-25T06:56:01;7.53;;;5.13;;
28958;SDS011;16066;0.000;0.000;2023-04-25T06:58:27;13.47;;;5.07;;
28958;SDS011;16066;0.000;0.000;2023-04-25T07:00:53;11.10;;;5.10;;
28958;SDS011;16066;0.000;0.000;2023-04-25T07:03:19;9.73;;;5.20;;
28958;SDS011;16066;0.000;0.000;2023-04-25T07:05:44;10.80;;;4.10;;
28958;SDS011;16066;0.000;0.000;2023-04-25T07:08:10;13.43;;;5.73;;
28958;SDS011;16066;0.000;0.000;2023-04-25T07:10:36;8.17;;;4.90;;
28958;SDS011;16066;0.000;0.000;2023-04-25T07:13:02;8.80;;;4.10;;
28958;SDS011;16066;0.000;0.000;2023-04-25T07:15:27;15.80;;;4.70;;
28958;SDS011;16066;0.000;0.000;2023-04-25T07:17:53;8.23;;;4.40;;
28958;SDS011;16066;0.000;0.000;2023-04-25T07:20:18;14.20;;;4.60;;
28958;SDS011;16066;0.000;0.000;2023-04-25T07:22:44;10.33;;;5.00;;
28958;SDS011;16066;0.000;0.000;2023-04-25T07:25:09;9.00;;;4.70;;
28958;SDS011;16066;0.000;0.000;2023-04-25T07:27:35;6.33;;;4.30;;
28958;SDS011;16066;0.000;0.000;2023-04-25T07:30:00;10.50;;;5.20;;
28958;SDS011;16066;0.000;0.000;2023-04-25T07:32:26;8.60;;;4.47;;
28958;SDS011;16066;0.000;0.000;2023-04-25T07:34:52;11.23;;;5.73;;
28958;SDS011;16066;0.000;0.000;2023-04-25T07:37:17;9.57;;;4.90;;
28958;SDS011;16066;0.000;0.000;2023-04-25T07:39:43;9.27;;;4.83;;
28958;SDS011;16066;0.000;0.000;2023-04-25T07:42:11;7.00;;;4.67;;
28958;SDS011;16066;0.000;0.000;2023-04-25T07:44:36;6.20;;;4.47;;
28958;SDS011;16066;0.000;0.000;2023-04-25T07:47:06;8.20;;;4.17;;
28958;SDS011;16066;0.000;0.000;2023-04-25T07:49:35;15.00;;;5.07;;
28958;SDS011;16066;0.000;0.000;2023-04-25T07:52:01;7.77;;;4.20;;
28958;SDS011;16066;0.000;0.000;2023-04-25T07:54:27;8.90;;;4.70;;
28958;SDS011;16066;0.000;0.000;2023-04-25T07:56:53;6.17;;;4.10;;
28958;SDS011;16066;0.000;0.000;2023-04-25T07:59:19;6.43;;;4.47;;
28958;SDS011;16066;0.000;0.000;2023-04-25T08:01:45;7.80;;;4.30;;
28958;SDS011;16066;0.000;0.000;2023-04-25T08:04:10;8.87;;;4.30;;
28958;SDS011;16066;0.000;0.000;2023-04-25T08:06:36;11.40;;;4.43;;
28958;SDS011;16066;0.000;0.000;2023-04-25T08:09:02;13.10;;;5.20;;
28958;SDS011;16066;0.000;0.000;2023-04-25T08:11:28;8.40;;;4.50;;
28958;SDS011;16066;0.000;0.000;2023-04-25T08:13:53;9.00;;;4.30;;
28958;SDS011;16066;0.000;0.000;2023-04-25T08:16:19;17.37;;;6.73;;
28958;SDS011;16066;0.000;0.000;2023-04-25T08:18:45;7.73;;;4.67;;
28958;SDS011;16066;0.000;0.000;2023-04-25T08:21:10;8.97;;;4.90;;
28958;SDS011;16066;0.000;0.000;2023-04-25T08:23:37;5.90;;;3.90;;
28958;SDS011;16066;0.000;0.000;2023-04-25T08:26:03;6.00;;;4.50;;
28958;SDS011;16066;0.000;0.000;2023-04-25T08:28:29;10.37;;;4.83;;
28958;SDS011;16066;0.000;0.000;2023-04-25T08:30:55;8.63;;;5.03;;
28958;SDS011;16066;0.000;0.000;2023-04-25T08:33:20;6.10;;;3.60;;
28958;SDS011;16066;0.000;0.000;2023-04-25T08:35:46;5.70;;;3.80;;
28958;SDS011;16066;0.000;0.000;2023-04-25T08:38:12;5.87;;;4.30;;
28958;SDS011;16066;0.000;0.000;2023-04-25T08:40:38;9.00;;;4.10;;
28958;SDS011;16066;0.000;0.000;2023-04-25T08:43:04;6.50;;;3.80;;
28958;SDS011;16066;0.000;0.000;2023-04-25T08:45:36;8.10;;;4.57;;
28958;SDS011;16066;0.000;0.000;2023-04-25T08:48:05;5.00;;;4.17;;
28958;SDS011;16066;0.000;0.000;2023-04-25T08:50:37;7.63;;;4.80;;
28958;SDS011;16066;0.000;0.000;2023-04-25T08:53:10;6.40;;;4.30;;
28958;SDS011;16066;0.000;0.000;2023-04-25T08:55:41;7.13;;;4.40;;
28958;SDS011;16066;0.000;0.000;2023-04-25T08:58:07;6.93;;;3.90;;
28958;SDS011;16066;0.000;0.000;2023-04-25T09:00:33;5.70;;;3.90;;
28958;SDS011;16066;0.000;0.000;2023-04-25T09:02:59;7.03;;;4.20;;
28958;SDS011;16066;0.000;0.000;2023-04-25T09:05:25;6.80;;;4.10;;
28958;SDS011;16066;0.000;0.000;2023-04-25T09:07:50;6.17;;;3.60;;
28958;SDS011;16066;0.000;0.000;2023-04-25T09:10:16;5.37;;;3.53;;
28958;SDS011;16066;0.000;0.000;2023-04-25T09:12:41;4.70;;;3.30;;
28958;SDS011;16066;0.000;0.000;2023-04-25T09:15:08;5.93;;;3.60;;
28958;SDS011;16066;0.000;0.000;2023-04-25T09:17:35;8.83;;;4.10;;
28958;SDS011;16066;0.000;0.000;2023-04-25T09:20:08;8.87;;;3.63;;
28958;SDS011;16066;0.000;0.000;2023-04-25T09:22:36;7.00;;;3.37;;
28958;SDS011;16066;0.000;0.000;2023-04-25T09:27:35;5.73;;;3.90;;
28958;SDS011;16066;0.000;0.000;2023-04-25T09:30:00;5.20;;;4.07;;
28958;SDS011;16066;0.000;0.000;2023-04-25T09:32:26;7.87;;;4.33;;
28958;SDS011;16066;0.000;0.000;2023-04-25T09:34:53;8.13;;;4.37;;
28958;SDS011;16066;0.000;0.000;2023-04-25T09:37:23;4.47;;;3.67;;
28958;SDS011;16066;0.000;0.000;2023-04-25T09:39:54;6.13;;;4.20;;
28958;SDS011;16066;0.000;0.000;2023-04-25T09:42:21;7.50;;;5.17;;
28958;SDS011;16066;0.000;0.000;2023-04-25T09:44:49;9.53;;;5.43;;
28958;SDS011;16066;0.000;0.000;2023-04-25T09:47:17;8.90;;;4.47;;
28958;SDS011;16066;0.000;0.000;2023-04-25T09:49:43;7.63;;;4.50;;
28958;SDS011;16066;0.000;0.000;2023-04-25T09:52:09;6.83;;;5.00;;
28958;SDS011;16066;0.000;0.000;2023-04-25T09:54:39;8.77;;;4.17;;
28958;SDS011;16066;0.000;0.000;2023-04-25T09:57:10;6.90;;;5.03;;
28958;SDS011;16066;0.000;0.000;2023-04-25T09:59:43;7.20;;;5.30;;
28958;SDS011;16066;0.000;0.000;2023-04-25T10:02:13;7.40;;;4.50;;
28958;SDS011;16066;0.000;0.000;2023-04-25T10:04:47;8.87;;;5.63;;
28958;SDS011;16066;0.000;0.000;2023-04-25T10:07:15;8.80;;;5.33;;
28958;SDS011;16066;0.000;0.000;2023-04-25T10:09:41;8.53;;;5.90;;
28958;SDS011;16066;0.000;0.000;2023-04-25T10:12:10;6.80;;;4.80;;
28958;SDS011;16066;0.000;0.000;2023-04-25T10:14:36;7.83;;;5.10;;
28958;SDS011;16066;0.000;0.000;2023-04-25T10:17:02;8.53;;;5.87;;
28958;SDS011;16066;0.000;0.000;2023-04-25T10:19:28;7.57;;;5.33;;
28958;SDS011;16066;0.000;0.000;2023-04-25T10:22:06;8.17;;;5.13;;
28958;SDS011;16066;0.000;0.000;2023-04-25T10:24:34;6.80;;;5.17;;
28958;SDS011;16066;0.000;0.000;2023-04-25T10:27:01;8.93;;;6.10;;
28958;SDS011;16066;0.000;0.000;2023-04-25T10:29:27;7.77;;;5.70;;
28958;SDS011;16066;0.000;0.000;2023-04-25T10:31:53;6.90;;;5.10;;
28958;SDS011;16066;0.000;0.000;2023-04-25T10:34:23;7.07;;;5.30;;
28958;SDS011;16066;0.000;0.000;2023-04-25T10:36:51;9.13;;;6.10;;
28958;SDS011;16066;0.000;0.000;2023-04-25T10:39:21;9.20;;;5.73;;
28958;SDS011;16066;0.000;0.000;2023-04-25T10:41:57;7.10;;;5.40;;
28958;SDS011;16066;0.000;0.000;2023-04-25T10:44:30;8.07;;;5.83;;
28958;SDS011;16066;0.000;0.000;2023-04-25T10:46:56;10.10;;;5.40;;
28958;SDS011;16066;0.000;0.000;2023-04-25T10:49:36;7.03;;;5.20;;
28958;SDS011;16066;0.000;0.000;2023-04-25T10:52:14;8.40;;;5.13;;
28958;SDS011;16066;0.000;0.000;2023-04-25T10:54:56;7.90;;;5.20;;
28958;SDS011;16066;0.000;0.000;2023-04-25T10:57:36;8.53;;;5.50;;
28958;SDS011;16066;0.000;0.000;2023-04-25T11:00:12;9.40;;;5.60;;
28958;SDS011;16066;0.000;0.000;2023-04-25T11:02:40;10.03;;;5.87;;
28958;SDS011;16066;0.000;0.000;2023-04-25T11:05:24;11.63;;;6.40;;
28958;SDS011;16066;0.000;0.000;2023-04-25T11:08:01;11.83;;;6.40;;
28958;SDS011;16066;0.000;0.000;2023-04-25T11:10:28;11.30;;;6.60;;
28958;SDS011;16066;0.000;0.000;2023-04-25T11:12:55;10.57;;;6.03;;
28958;SDS011;16066;0.000;0.000;2023-04-25T11:15:21;11.10;;;5.83;;
28958;SDS011;16066;0.000;0.000;2023-04-25T11:17:47;9.30;;;5.97;;
28958;SDS011;16066;0.000;0.000;2023-04-25T11:20:13;11.60;;;6.10;;
28958;SDS011;16066;0.000;0.000;2023-04-25T11:22:40;11.90;;;6.53;;
28958;SDS011;16066;0.000;0.000;2023-04-25T11:25:09;8.07;;;5.30;;
28958;SDS011;16066;0.000;0.000;2023-04-25T11:27:48;7.60;;;4.63;;
28958;SDS011;16066;0.000;0.000;2023-04-25T11:30:22;7.07;;;4.10;;
28958;SDS011;16066;0.000;0.000;2023-04-25T11:32:49;6.57;;;4.57;;
28958;SDS011;16066;0.000;0.000;2023-04-25T11:35:16;11.53;;;4.43;;
28958;SDS011;16066;0.000;0.000;2023-04-25T11:37:43;11.50;;;4.10;;
28958;SDS011;16066;0.000;0.000;2023-04-25T11:40:09;7.37;;;3.80;;
28958;SDS011;16066;0.000;0.000;2023-04-25T11:42:43;45.13;;;4.67;;
28958;SDS011;16066;0.000;0.000;2023-04-25T11:45:10;8.00;;;3.90;;
28958;SDS011;16066;0.000;0.000;2023-04-25T11:47:36;22.27;;;3.87;;
28958;SDS011;16066;0.000;0.000;2023-04-25T11:50:03;11.00;;;3.53;;
28958;SDS011;16066;0.000;0.000;2023-04-25T11:52:40;16.50;;;4.20;;
28958;SDS011;16066;0.000;0.000;2023-04-25T11:55:08;5.30;;;3.47;;
28958;SDS011;16066;0.000;0.000;2023-04-25T11:57:37;17.23;;;3.37;;
28958;SDS011;16066;0.000;0.000;2023-04-25T12:02:37;4.80;;;2.60;;
28958;SDS011;16066;0.000;0.000;2023-04-25T12:05:06;6.90;;;2.90;;
28958;SDS011;16066;0.000;0.000;2023-04-25T12:07:33;4.47;;;3.00;;
28958;SDS011;16066;0.000;0.000;2023-04-25T12:09:59;4.57;;;2.60;;
28958;SDS011;16066;0.000;0.000;2023-04-25T12:12:32;5.93;;;2.90;;
28958;SDS011;16066;0.000;0.000;2023-04-25T12:15:07;4.23;;;2.40;;
28958;SDS011;16066;0.000;0.000;2023-04-25T12:17:34;5.70;;;2.63;;
28958;SDS011;16066;0.000;0.000;2023-04-25T12:20:00;5.90;;;2.73;;
28958;SDS011;16066;0.000;0.000;2023-04-25T12:22:32;4.23;;;2.33;;
28958;SDS011;16066;0.000;0.000;2023-04-25T12:24:58;5.27;;;2.37;;
28958;SDS011;16066;0.000;0.000;2023-04-25T12:27:23;6.20;;;1.90;;
28958;SDS011;16066;0.000;0.000;2023-04-25T12:29:51;3.73;;;2.43;;
28958;SDS011;16066;0.000;0.000;2023-04-25T12:32:18;3.70;;;2.47;;
28958;SDS011;16066;0.000;0.000;2023-04-25T12:34:44;4.40;;;2.40;;
28958;SDS011;16066;0.000;0.000;2023-04-25T12:37:10;5.17;;;2.50;;
28958;SDS011;16066;0.000;0.000;2023-04-25T12:39:36;3.80;;;2.63;;
28958;SDS011;16066;0.000;0.000;2023-04-25T12:42:01;5.63;;;1.90;;
28958;SDS011;16066;0.000;0.000;2023-04-25T12:44:28;11.73;;;2.57;;
28958;SDS011;16066;0.000;0.000;2023-04-25T12:46:53;4.87;;;2.50;;
28958;SDS011;16066;0.000;0.000;2023-04-25T12:49:19;7.13;;;2.45;;
28958;SDS011;16066;0.000;0.000;2023-04-25T12:51:45;5.53;;;2.70;;
28958;SDS011;16066;0.000;0.000;2023-04-25T12:54:11;8.03;;;2.57;;
28958;SDS011;16066;0.000;0.000;2023-04-25T12:56:37;5.30;;;2.20;;
28958;SDS011;16066;0.000;0.000;2023-04-25T12:59:03;3.80;;;2.13;;
28958;SDS011;16066;0.000;0.000;2023-04-25T13:01:28;5.97;;;1.90;;
28958;SDS011;16066;0.000;0.000;2023-04-25T13:03:55;5.30;;;2.07;;
28958;SDS011;16066;0.000;0.000;2023-04-25T13:06:21;3.63;;;2.30;;
28958;SDS011;16066;0.000;0.000;2023-04-25T13:08:47;3.97;;;2.20;;
28958;SDS011;16066;0.000;0.000;2023-04-25T13:11:13;5.10;;;2.60;;
28958;SDS011;16066;0.000;0.000;2023-04-25T13:13:40;6.20;;;2.33;;
28958;SDS011;16066;0.000;0.000;2023-04-25T13:16:06;5.33;;;2.60;;
28958;SDS011;16066;0.000;0.000;2023-04-25T13:18:32;6.13;;;2.70;;
28958;SDS011;16066;0.000;0.000;2023-04-25T13:20:58;5.57;;;2.40;;
28958;SDS011;16066;0.000;0.000;2023-04-25T13:23:25;6.40;;;2.70;;
28958;SDS011;16066;0.000;0.000;2023-04-25T13:25:51;3.53;;;2.33;;
28958;SDS011;16066;0.000;0.000;2023-04-25T13:28:17;6.80;;;2.90;;
28958;SDS011;16066;0.000;0.000;2023-04-25T13:30:42;5.93;;;2.50;;
28958;SDS011;16066;0.000;0.000;2023-04-25T13:33:08;6.93;;;2.67;;
28958;SDS011;16066;0.000;0.000;2023-04-25T13:35:36;5.50;;;3.33;;
28958;SDS011;16066;0.000;0.000;2023-04-25T13:38:03;5.20;;;3.27;;
28958;SDS011;16066;0.000;0.000;2023-04-25T13:40:29;8.50;;;2.90;;
28958;SDS011;16066;0.000;0.000;2023-04-25T13:42:55;3.77;;;2.60;;
28958;SDS011;16066;0.000;0.000;2023-04-25T13:45:21;4.43;;;2.90;;
28958;SDS011;16066;0.000;0.000;2023-04-25T13:47:46;2.90;;;2.57;;
28958;SDS011;16066;0.000;0.000;2023-04-25T13:50:12;6.27;;;3.33;;
28958;SDS011;16066;0.000;0.000;2023-04-25T13:52:38;7.63;;;3.70;;
28958;SDS011;16066;0.000;0.000;2023-04-25T13:55:04;6.30;;;4.00;;
28958;SDS011;16066;0.000;0.000;2023-04-25T13:57:32;10.00;;;4.50;;
28958;SDS011;16066;0.000;0.000;2023-04-25T13:59:58;5.50;;;3.83;;
28958;SDS011;16066;0.000;0.000;2023-04-25T14:02:24;6.77;;;4.30;;
28958;SDS011;16066;0.000;0.000;2023-04-25T14:04:50;8.90;;;4.47;;
28958;SDS011;16066;0.000;0.000;2023-04-25T14:07:16;5.77;;;4.10;;
28958;SDS011;16066;0.000;0.000;2023-04-25T14:09:43;8.20;;;4.47;;
28958;SDS011;16066;0.000;0.000;2023-04-25T14:12:08;8.73;;;4.17;;
28958;SDS011;16066;0.000;0.000;2023-04-25T14:14:34;7.27;;;4.37;;
28958;SDS011;16066;0.000;0.000;2023-04-25T14:17:00;7.00;;;4.73;;
28958;SDS011;16066;0.000;0.000;2023-04-25T14:19:25;6.07;;;4.60;;
28958;SDS011;16066;0.000;0.000;2023-04-25T14:21:51;6.70;;;4.77;;
28958;SDS011;16066;0.000;0.000;2023-04-25T14:24:16;5.37;;;3.40;;
28958;SDS011;16066;0.000;0.000;2023-04-25T14:26:42;6.57;;;3.80;;
28958;SDS011;16066;0.000;0.000;2023-04-25T14:29:08;5.03;;;3.30;;
28958;SDS011;16066;0.000;0.000;2023-04-25T14:31:36;5.63;;;3.23;;
28958;SDS011;16066;0.000;0.000;2023-04-25T14:34:04;5.17;;;3.57;;
28958;SDS011;16066;0.000;0.000;2023-04-25T14:36:30;6.10;;;4.03;;
28958;SDS011;16066;0.000;0.000;2023-04-25T14:38:56;8.53;;;4.33;;
28958;SDS011;16066;0.000;0.000;2023-04-25T14:41:22;9.40;;;4.47;;
28958;SDS011;16066;0.000;0.000;2023-04-25T14:43:48;6.10;;;3.70;;
28958;SDS011;16066;0.000;0.000;2023-04-25T14:46:13;6.13;;;4.10;;
28958;SDS011;16066;0.000;0.000;2023-04-25T14:48:39;5.70;;;3.93;;
28958;SDS011;16066;0.000;0.000;2023-04-25T14:51:05;6.20;;;4.03;;
28958;SDS011;16066;0.000;0.000;2023-04-25T14:53:31;7.33;;;4.37;;
28958;SDS011;16066;0.000;0.000;2023-04-25T14:55:56;7.20;;;4.37;;
28958;SDS011;16066;0.000;0.000;2023-04-25T14:58:22;7.67;;;4.37;;
28958;SDS011;16066;0.000;0.000;2023-04-25T15:00:48;7.40;;;5.10;;
28958;SDS011;16066;0.000;0.000;2023-04-25T15:03:13;8.60;;;4.20;;